Time;durP1;ratioP1;P1;durP2;ratioP2;P2;SDS_P1;SDS_P2;PMS_P1;PMS_P2;Temp;Humidity;BMP_temperature;BMP_pressure;BME280_temperature;BME280_humidity;BME280_pressure;Samples;Min_cycle;Max_cycle;Signal;HPM_P1;HPM_P2
2021/11/02 07:16:00;;;;;;;1.25;0.55;;;8.00;99.90;;;;;;4826150;29;20081;-90
2021/11/02 07:18:31;;;;;;;2.65;0.88;;;8.00;99.90;;;;;;4826782;29;20057;-90
2021/11/02 08:45:17;;;;;;;7.43;2.60;;;9.00;99.90;;;;;;4829086;29;20103;-91
2021/11/02 08:47:47;;;;;;;7.53;3.38;;;9.00;99.90;;;;;;4857424;29;20101;-91
2021/11/02 08:50:20;;;;;;;8.73;3.75;;;9.00;99.90;;;;;;4897170;29;20588;-90
2021/11/02 08:52:51;;;;;;;7.28;3.80;;;9.10;99.90;;;;;;4897975;29;20336;-90
2021/11/02 08:55:19;;;;;;;7.50;3.58;;;9.10;99.90;;;;;;4896642;29;20048;-90
2021/11/02 08:57:48;;;;;;;7.50;3.63;;;9.10;99.90;;;;;;4897160;29;20089;-91
2021/11/02 09:00:17;;;;;;;6.90;3.95;;;9.10;99.90;;;;;;4895023;29;20504;-90
2021/11/02 09:02:53;;;;;;;4.57;2.92;;;9.20;99.90;;;;;;4897143;29;20120;-88
2021/11/02 09:05:25;;;;;;;6.07;2.60;;;9.20;99.90;;;;;;4897054;29;20045;-89
2021/11/02 09:07:57;;;;;;;6.68;2.10;;;9.20;99.90;;;;;;4894545;29;20063;-92
2021/11/02 09:10:25;;;;;;;5.50;2.33;;;9.20;99.90;;;;;;4892102;29;20048;-93
2021/11/02 09:12:55;;;;;;;7.43;1.95;;;9.30;99.90;;;;;;4896033;29;20057;-94
2021/11/02 09:15:28;;;;;;;5.30;2.67;;;9.30;99.90;;;;;;4880929;29;20139;-94
2021/11/02 09:17:57;;;;;;;8.88;2.30;;;9.40;99.90;;;;;;4898680;29;20147;-93
2021/11/02 09:20:25;;;;;;;3.72;1.30;;;9.40;99.90;;;;;;4893318;29;20045;-93
2021/11/02 09:22:53;;;;;;;3.22;1.73;;;9.50;99.90;;;;;;4897450;29;20049;-95
2021/11/02 09:25:21;;;;;;;2.97;1.70;;;9.50;99.90;;;;;;4897485;29;20045;-94
2021/11/02 09:27:49;;;;;;;3.35;1.80;;;9.60;99.90;;;;;;4899142;29;20045;-94
2021/11/02 09:30:19;;;;;;;3.60;2.00;;;9.60;99.90;;;;;;4898675;29;20061;-95
2021/11/02 09:32:48;;;;;;;7.13;2.42;;;9.70;99.90;;;;;;4899147;29;20049;-95
2021/11/02 09:35:18;;;;;;;4.50;2.03;;;9.70;99.90;;;;;;4897406;29;20053;-93
2021/11/02 09:38:06;;;;;;;8.13;2.45;;;9.80;99.90;;;;;;4895619;29;20045;-93
2021/11/02 09:41:00;;;;;;;2.95;1.70;;;9.90;99.90;;;;;;4881801;29;20493;-92
2021/11/02 09:43:43;;;;;;;5.20;2.42;;;10.00;99.90;;;;;;4897935;29;20057;-93
2021/11/02 09:46:19;;;;;;;6.78;1.85;;;10.00;99.90;;;;;;4897236;29;20131;-93
2021/11/02 09:48:55;;;;;;;7.60;2.55;;;10.10;99.90;;;;;;4898749;29;20047;-93
2021/11/02 09:51:37;;;;;;;4.50;1.52;;;10.20;99.90;;;;;;4884995;29;20049;-94
2021/11/02 09:54:12;;;;;;;5.25;1.80;;;10.30;99.90;;;;;;4880343;29;20167;-88
2021/11/02 09:56:56;;;;;;;3.15;1.05;;;10.30;99.90;;;;;;4885740;29;20100;-94
2021/11/02 09:59:41;;;;;;;6.30;1.55;;;10.30;99.90;;;;;;4895655;29;20056;-92
2021/11/02 10:02:43;;;;;;;3.95;1.35;;;10.30;99.90;;;;;;4896774;29;20486;-93
2021/11/02 10:05:28;;;;;;;3.88;1.20;;;10.30;99.90;;;;;;4880384;29;20569;-94
2021/11/02 10:08:27;;;;;;;7.82;1.70;;;10.30;99.90;;;;;;4880376;29;20144;-93
2021/11/02 10:11:13;;;;;;;7.22;1.95;;;10.30;99.90;;;;;;4896189;29;20820;-94
2021/11/02 10:13:53;;;;;;;4.25;2.10;;;10.20;99.90;;;;;;4892326;29;20491;-93
2021/11/02 10:16:22;;;;;;;3.22;1.50;;;10.20;99.90;;;;;;4880231;29;20111;-93
2021/11/02 10:19:12;;;;;;;3.30;1.00;;;10.10;99.90;;;;;;4896274;29;20052;-91
2021/11/02 10:22:16;;;;;;;3.35;1.13;;;10.00;99.90;;;;;;4894176;29;20105;-91
2021/11/02 10:24:58;;;;;;;3.25;0.88;;;9.90;99.90;;;;;;4879362;29;20057;-91
2021/11/02 10:27:56;;;;;;;5.07;0.90;;;9.80;99.90;;;;;;4895553;29;20124;-92
2021/11/02 10:30:41;;;;;;;2.65;0.75;;;9.80;99.90;;;;;;4894503;29;20514;-92
2021/11/02 10:33:21;;;;;;;4.45;0.68;;;9.80;99.90;;;;;;4893404;29;20104;-91
2021/11/02 10:36:25;;;;;;;3.78;0.68;;;9.80;99.90;;;;;;4885221;29;20045;-92
2021/11/02 10:39:03;;;;;;;1.88;0.60;;;9.80;99.90;;;;;;4878483;29;20049;-94
2021/11/02 10:41:36;;;;;;;2.35;0.70;;;9.80;99.90;;;;;;4894799;29;20048;-93
2021/11/02 10:44:44;;;;;;;1.60;0.93;;;9.90;99.90;;;;;;4896274;29;20540;-96
2021/11/02 10:47:23;;;;;;;2.45;0.68;;;10.00;99.90;;;;;;4779538;29;20055;-91
2021/11/02 10:50:05;;;;;;;2.35;0.57;;;10.00;99.90;;;;;;4769060;30;20613;-91
2021/11/02 10:52:38;;;;;;;3.58;0.70;;;10.00;99.90;;;;;;4783543;30;20144;-92
2021/11/02 10:55:05;;;;;;;1.67;0.50;;;10.00;99.90;;;;;;4783331;29;20486;-92
2021/11/02 10:58:25;;;;;;;5.43;0.93;;;10.00;99.90;;;;;;4782594;30;20097;-92
2021/11/02 11:00:53;;;;;;;3.42;0.60;;;10.10;99.90;;;;;;4769607;29;20120;-91
2021/11/02 11:03:28;;;;;;;0.93;0.43;;;10.20;99.90;;;;;;4782159;30;20067;-92
2021/11/02 11:06:04;;;;;;;3.55;0.80;;;10.30;99.90;;;;;;4763379;30;20056;-91
2021/11/02 11:08:35;;;;;;;3.47;0.60;;;10.40;99.90;;;;;;4783434;30;20531;-92
2021/11/02 11:11:06;;;;;;;3.03;0.50;;;10.50;99.90;;;;;;4766293;30;20056;-92
2021/11/02 11:13:37;;;;;;;3.40;0.47;;;10.50;99.90;;;;;;4769666;30;20539;-91
2021/11/02 11:16:12;;;;;;;2.92;0.60;;;10.60;99.90;;;;;;4768009;29;20059;-91
2021/11/02 11:18:47;;;;;;;3.13;0.63;;;10.70;99.90;;;;;;4783611;30;20063;-91
2021/11/02 11:21:15;;;;;;;1.73;0.50;;;10.80;99.90;;;;;;4824207;29;20045;-89
2021/11/02 11:23:44;;;;;;;3.58;0.63;;;10.80;99.90;;;;;;4895516;29;20102;-91
2021/11/02 11:26:11;;;;;;;2.05;0.50;;;10.90;99.90;;;;;;4892131;29;20113;-91
2021/11/02 11:28:40;;;;;;;0.57;0.22;;;11.00;99.90;;;;;;4877604;29;20048;-92
2021/11/02 11:31:08;;;;;;;5.18;1.20;;;11.10;99.90;;;;;;4894619;29;20060;-93
2021/11/02 11:33:36;;;;;;;4.35;3.03;;;11.10;99.90;;;;;;4895274;29;20052;-92
2021/11/02 11:36:05;;;;;;;3.83;2.97;;;11.20;99.90;;;;;;4894760;29;20080;-94
2021/11/02 11:38:39;;;;;;;6.45;4.05;;;11.30;99.90;;;;;;4878959;29;20104;-92
2021/11/02 11:41:09;;;;;;;3.53;2.30;;;11.30;99.90;;;;;;4893773;29;20060;-93
2021/11/02 11:43:40;;;;;;;3.58;2.60;;;11.40;99.90;;;;;;4895662;29;20478;-90
2021/11/02 11:46:07;;;;;;;6.47;3.30;;;11.50;99.90;;;;;;4883632;29;20104;-91
2021/11/02 11:48:42;;;;;;;5.65;3.03;;;11.50;99.90;;;;;;4895106;29;20498;-91
2021/11/02 11:51:19;;;;;;;2.63;1.60;;;11.60;99.90;;;;;;4875886;29;20060;-91
2021/11/02 11:53:48;;;;;;;2.35;1.63;;;11.70;99.90;;;;;;4895635;29;20048;-91
2021/11/02 11:56:18;;;;;;;1.35;0.63;;;11.70;99.90;;;;;;4887203;29;20057;-91
2021/11/02 11:58:54;;;;;;;1.92;0.98;;;11.80;99.90;;;;;;4894977;29;20108;-91
2021/11/02 12:01:46;;;;;;;1.38;0.70;;;11.90;99.90;;;;;;4889895;29;20063;-90
2021/11/02 12:04:22;;;;;;;2.65;0.98;;;11.90;99.90;;;;;;4886842;29;20204;-89
2021/11/02 12:07:18;;;;;;;2.63;0.90;;;12.00;99.90;;;;;;4895323;29;20045;-90
2021/11/02 12:09:46;;;;;;;0.93;0.77;;;12.00;99.90;;;;;;4870368;29;20096;-90
2021/11/02 12:12:14;;;;;;;1.33;0.90;;;12.10;99.90;;;;;;4878002;29;20056;-89
2021/11/02 12:14:49;;;;;;;2.17;1.40;;;12.20;99.90;;;;;;4897475;29;20053;-87
2021/11/02 12:17:18;;;;;;;2.05;1.80;;;12.20;99.90;;;;;;4896368;29;20052;-88
2021/11/02 12:19:54;;;;;;;3.22;1.23;;;12.20;99.90;;;;;;4893955;29;20060;-88
2021/11/02 12:22:27;;;;;;;2.10;1.50;;;12.30;99.90;;;;;;4896780;29;20095;-89
2021/11/02 12:25:07;;;;;;;1.35;0.90;;;12.30;99.90;;;;;;4898155;29;20108;-88
2021/11/02 12:27:40;;;;;;;1.70;0.80;;;12.30;99.90;;;;;;4895857;29;20053;-89
2021/11/02 12:30:16;;;;;;;1.48;0.90;;;12.40;99.90;;;;;;4896493;29;20060;-87
2021/11/02 12:33:03;;;;;;;2.28;0.90;;;12.40;99.90;;;;;;4898048;29;20057;-88
2021/11/02 12:35:38;;;;;;;1.50;0.85;;;12.40;99.90;;;;;;4895719;29;20048;-88
2021/11/02 12:38:06;;;;;;;1.40;0.60;;;12.50;99.90;;;;;;4879396;29;20053;-89
2021/11/02 12:40:39;;;;;;;3.03;1.05;;;12.50;99.90;;;;;;4893433;29;20474;-93
2021/11/02 12:43:25;;;;;;;;;;;12.50;99.90;;;;;;4882392;29;20067;-90
2021/11/02 12:45:55;;;;;;;2.00;0.60;;;12.50;99.90;;;;;;4898030;29;19927;-89
2021/11/02 12:48:23;;;;;;;1.00;0.70;;;12.50;99.90;;;;;;4897148;29;20076;-89
2021/11/02 12:51:19;;;;;;;2.38;0.80;;;12.50;99.90;;;;;;4894686;29;20930;-88
2021/11/02 12:53:50;;;;;;;1.30;0.80;;;12.60;99.90;;;;;;4882915;29;20048;-89
2021/11/02 12:56:20;;;;;;;0.98;0.50;;;12.60;99.90;;;;;;4893290;29;20056;-88
2021/11/02 12:58:51;;;;;;;1.38;0.57;;;12.70;99.90;;;;;;4897607;29;20052;-88
2021/11/02 13:01:33;;;;;;;1.42;0.90;;;12.70;99.90;;;;;;4893826;29;20105;-90
2021/11/02 13:04:04;;;;;;;0.73;0.60;;;12.70;99.90;;;;;;4897675;29;20517;-91
2021/11/02 13:06:43;;;;;;;2.08;0.50;;;12.70;99.90;;;;;;4880890;29;20056;-89
2021/11/02 13:09:24;;;;;;;2.47;0.52;;;12.80;99.90;;;;;;4880470;29;20076;-90
2021/11/02 13:12:07;;;;;;;1.90;0.70;;;12.80;99.90;;;;;;4897203;29;20585;-89
2021/11/02 13:14:42;;;;;;;;;;;12.90;99.90;;;;;;4896814;29;20050;-88
2021/11/02 13:17:11;;;;;;;0.93;0.60;;;12.90;99.90;;;;;;4896289;29;20349;-88
2021/11/02 13:19:40;;;;;;;2.42;0.40;;;12.90;99.90;;;;;;4896500;29;20049;-90
2021/11/02 13:22:11;;;;;;;1.10;0.50;;;12.90;99.90;;;;;;4879267;29;20112;-88
2021/11/02 13:24:38;;;;;;;2.13;0.60;;;12.90;99.90;;;;;;4896289;29;20485;-88
2021/11/02 13:27:09;;;;;;;2.88;0.80;;;13.00;99.90;;;;;;4892195;29;20597;-88
2021/11/02 13:29:36;;;;;;;1.95;0.50;;;12.90;99.90;;;;;;4897435;29;20129;-88
2021/11/02 13:32:06;;;;;;;1.38;0.80;;;12.90;99.90;;;;;;4896051;29;20049;-87
2021/11/02 13:34:34;;;;;;;1.13;0.60;;;12.90;99.90;;;;;;4891714;29;20100;-90
2021/11/02 13:37:11;;;;;;;2.53;0.68;;;12.80;99.90;;;;;;4879972;29;20044;-89
2021/11/02 13:39:54;;;;;;;2.33;0.80;;;12.80;99.90;;;;;;4896639;29;20040;-89
2021/11/02 13:42:48;;;;;;;4.32;0.90;;;12.80;99.90;;;;;;4885165;29;20049;-90
2021/11/02 13:45:19;;;;;;;2.22;0.70;;;12.80;99.90;;;;;;4895102;29;20052;-90
2021/11/02 13:47:47;;;;;;;1.83;0.65;;;12.80;99.90;;;;;;4896677;29;20064;-91
2021/11/02 13:50:14;;;;;;;1.75;0.60;;;12.70;99.90;;;;;;4878798;29;20056;-90
2021/11/02 13:52:42;;;;;;;3.07;0.97;;;12.70;99.90;;;;;;4880109;29;20048;-90
2021/11/02 13:55:09;;;;;;;3.10;0.90;;;12.70;99.90;;;;;;4895049;29;20108;-90
2021/11/02 13:57:36;;;;;;;3.45;0.77;;;12.70;99.90;;;;;;4896822;29;20049;-90
2021/11/02 14:00:06;;;;;;;3.13;0.73;;;12.70;99.90;;;;;;4893589;29;20536;-90
2021/11/02 14:02:38;;;;;;;1.98;0.93;;;12.70;99.90;;;;;;4878154;29;20052;-89
2021/11/02 14:05:05;;;;;;;2.63;0.70;;;12.70;99.90;;;;;;4896008;29;20061;-86
2021/11/02 14:07:34;;;;;;;1.10;0.50;;;12.70;99.90;;;;;;4876275;29;20052;-89
2021/11/02 14:10:06;;;;;;;1.00;0.40;;;12.70;99.90;;;;;;4879985;29;20858;-90
2021/11/02 14:12:45;;;;;;;3.08;0.60;;;12.70;99.90;;;;;;4895091;29;20055;-89
2021/11/02 14:15:12;;;;;;;3.30;0.73;;;12.70;99.90;;;;;;4888712;29;20081;-88
2021/11/02 14:17:49;;;;;;;2.10;0.70;;;12.60;99.90;;;;;;4890688;29;20400;-89
2021/11/02 14:20:51;;;;;;;2.00;0.80;;;12.70;99.90;;;;;;4895061;29;20143;-88
2021/11/02 14:23:30;;;;;;;5.18;1.38;;;12.70;99.90;;;;;;4894996;29;20096;-90
2021/11/02 14:26:19;;;;;;;2.28;0.88;;;12.70;99.90;;;;;;4891813;29;20067;-88
2021/11/02 14:28:47;;;;;;;;;;;12.70;99.90;;;;;;4888657;29;20037;-89
2021/11/02 14:31:37;;;;;;;1.92;1.23;;;12.70;99.90;;;;;;4892209;29;19971;-89
2021/11/02 14:34:05;;;;;;;2.67;1.00;;;12.70;99.90;;;;;;4884155;29;20045;-85
2021/11/02 14:36:40;;;;;;;2.50;0.90;;;12.80;99.90;;;;;;4894247;29;20044;-88
2021/11/02 14:39:08;;;;;;;2.70;1.00;;;12.80;99.90;;;;;;4892983;29;20112;-88
2021/11/02 14:41:36;;;;;;;2.03;0.77;;;12.80;99.90;;;;;;4893641;29;20052;-88
2021/11/02 14:44:15;;;;;;;3.58;0.82;;;12.80;99.90;;;;;;4872799;29;20118;-88
2021/11/02 14:46:59;;;;;;;2.90;0.80;;;12.80;99.90;;;;;;4872411;29;20044;-88
2021/11/02 14:49:29;;;;;;;5.07;0.80;;;12.80;99.90;;;;;;4890515;29;20176;-88
2021/11/02 14:52:12;;;;;;;4.05;0.73;;;12.80;99.90;;;;;;4890733;29;20116;-87
2021/11/02 14:54:44;;;;;;;5.72;0.98;;;12.80;99.90;;;;;;4875240;29;20060;-88
2021/11/02 14:57:20;;;;;;;4.90;1.00;;;12.80;99.90;;;;;;4890999;29;20437;-87
2021/11/02 14:59:55;;;;;;;6.18;1.13;;;12.90;99.90;;;;;;4888450;29;20045;-87
2021/11/02 15:02:43;;;;;;;5.22;0.80;;;12.90;99.90;;;;;;4893748;29;20092;-88
2021/11/02 15:05:18;;;;;;;3.90;0.80;;;12.90;99.90;;;;;;4892228;29;20525;-87
2021/11/02 15:07:47;;;;;;;2.90;0.85;;;12.90;99.90;;;;;;4877300;29;20124;-86
2021/11/02 15:10:16;;;;;;;2.85;0.50;;;12.80;99.90;;;;;;4870026;29;20541;-89
2021/11/02 15:12:49;;;;;;;2.88;0.90;;;12.60;99.90;;;;;;4872836;29;20048;-88
2021/11/02 15:15:16;;;;;;;3.28;0.63;;;12.50;99.90;;;;;;4885503;29;20044;-87
2021/11/02 15:17:43;;;;;;;3.17;0.57;;;12.40;99.90;;;;;;4877923;29;20104;-88
2021/11/02 15:20:24;;;;;;;1.25;0.38;;;12.40;99.90;;;;;;4878848;29;20573;-88
2021/11/02 15:22:57;;;;;;;2.72;0.60;;;12.40;99.90;;;;;;4894049;29;20080;-88
2021/11/02 15:25:25;;;;;;;1.35;0.70;;;12.40;99.90;;;;;;4891023;29;20886;-87
2021/11/02 15:28:00;;;;;;;2.92;1.05;;;12.40;99.90;;;;;;4877779;29;20513;-87
2021/11/02 15:30:28;;;;;;;4.97;0.43;;;12.30;99.90;;;;;;4892710;29;20048;-87
2021/11/02 15:32:55;;;;;;;3.40;0.38;;;12.30;99.90;;;;;;4889604;29;20146;-88
2021/11/02 15:35:25;;;;;;;3.67;0.50;;;12.30;99.90;;;;;;4878815;29;20048;-87
2021/11/02 15:38:00;;;;;;;3.35;0.63;;;12.40;99.90;;;;;;4876945;29;20904;-86
2021/11/02 15:40:41;;;;;;;2.22;0.50;;;12.40;99.90;;;;;;4877434;29;20104;-88
2021/11/02 15:43:11;;;;;;;4.20;0.82;;;12.40;99.90;;;;;;4877898;29;20053;-86
2021/11/02 15:45:43;;;;;;;3.65;0.77;;;12.30;99.90;;;;;;4891249;29;20052;-88
2021/11/02 15:48:13;;;;;;;4.05;0.75;;;12.30;99.90;;;;;;4895492;29;20139;-86
2021/11/02 15:50:43;;;;;;;5.15;1.05;;;12.30;99.90;;;;;;4893451;29;20148;-87
2021/11/02 15:53:11;;;;;;;2.30;1.50;;;12.40;99.90;;;;;;4878283;29;20059;-88
2021/11/02 15:55:39;;;;;;;3.03;0.80;;;12.30;99.90;;;;;;4890678;29;20048;-87
2021/11/02 15:58:09;;;;;;;4.20;1.80;;;12.30;99.90;;;;;;4871204;29;20053;-89
2021/11/02 16:00:44;;;;;;;2.45;0.47;;;12.20;99.90;;;;;;4883512;29;20478;-87
2021/11/02 16:03:13;;;;;;;1.27;0.55;;;12.20;99.90;;;;;;4896022;29;20163;-89
2021/11/02 16:05:42;;;;;;;2.13;0.30;;;12.10;99.90;;;;;;4896530;29;20057;-88
2021/11/02 16:08:17;;;;;;;1.45;0.20;;;12.00;99.90;;;;;;4879237;29;20108;-90
2021/11/02 16:10:54;;;;;;;2.40;0.30;;;11.90;99.90;;;;;;4896853;29;20104;-89
2021/11/02 16:13:30;;;;;;;2.53;0.30;;;11.60;99.90;;;;;;4896557;29;20052;-90
2021/11/02 16:16:01;;;;;;;0.75;0.20;;;11.40;99.90;;;;;;4897201;29;20131;-90
2021/11/02 16:18:33;;;;;;;1.05;0.20;;;11.10;99.90;;;;;;4896427;29;20044;-90
2021/11/02 16:21:06;;;;;;;1.55;0.20;;;10.90;99.90;;;;;;4885924;29;20132;-91
2021/11/02 16:23:46;;;;;;;1.00;0.30;;;10.80;99.90;;;;;;4877412;29;20041;-90
2021/11/02 16:26:15;;;;;;;1.83;0.40;;;10.60;99.90;;;;;;4895948;29;20057;-90
2021/11/02 16:28:42;;;;;;;0.60;0.20;;;10.40;99.90;;;;;;4896912;29;20104;-90
2021/11/02 16:31:19;;;;;;;1.67;0.30;;;10.30;99.90;;;;;;4895876;29;20049;-91
2021/11/02 16:33:46;;;;;;;1.83;0.50;;;10.20;99.90;;;;;;4896094;29;20524;-89
2021/11/02 16:36:15;;;;;;;2.35;0.50;;;10.10;99.90;;;;;;4896550;29;20561;-88
2021/11/02 16:38:43;;;;;;;;;;;10.10;99.90;;;;;;4880831;29;20048;-90
2021/11/02 16:41:42;;;;;;;0.32;0.28;;;10.00;99.90;;;;;;4896477;29;20388;-89
2021/11/02 16:44:31;;;;;;;2.13;0.47;;;9.90;99.90;;;;;;4877317;29;20059;-88
2021/11/02 16:47:02;;;;;;;3.15;0.50;;;9.80;99.90;;;;;;4894834;29;20052;-90
2021/11/02 16:49:29;;;;;;;1.85;0.50;;;9.80;99.90;;;;;;4885867;29;20054;-92
2021/11/02 16:52:03;;;;;;;2.30;0.50;;;9.80;99.90;;;;;;4911601;29;20057;-91
2021/11/02 16:54:35;;;;;;;2.35;0.40;;;9.70;99.90;;;;;;4893989;29;20091;-90
2021/11/02 16:57:17;;;;;;;6.43;1.38;;;9.70;99.90;;;;;;4896206;29;20052;-90
2021/11/02 17:00:10;;;;;;;2.50;1.02;;;9.70;99.90;;;;;;4863627;29;20056;-90
2021/11/02 17:02:47;;;;;;;4.82;2.00;;;9.70;99.90;;;;;;4881363;29;20049;-90
2021/11/02 17:05:15;;;;;;;3.78;0.65;;;9.70;99.90;;;;;;4880869;29;20052;-90
2021/11/02 17:08:08;;;;;;;4.00;1.20;;;9.70;99.90;;;;;;4891899;29;20052;-90
2021/11/02 17:10:35;;;;;;;2.00;0.93;;;9.60;99.90;;;;;;4899110;29;20076;-88
2021/11/02 17:13:24;;;;;;;1.75;0.70;;;9.60;99.90;;;;;;4894300;29;20101;-89
2021/11/02 17:15:51;;;;;;;;;;;9.50;99.90;;;;;;4881054;29;20045;-89
2021/11/02 17:18:24;;;;;;;6.05;0.85;;;9.50;99.90;;;;;;4868512;29;20038;-89
2021/11/02 17:21:06;;;;;;;10.45;6.43;;;9.50;99.90;;;;;;4914348;29;20053;-87
2021/11/02 17:23:34;;;;;;;3.30;2.25;;;9.40;99.90;;;;;;4864296;29;20041;-87
2021/11/02 17:26:03;;;;;;;1.85;0.90;;;9.30;99.90;;;;;;4897686;29;20053;-88
2021/11/02 17:28:32;;;;;;;11.88;10.65;;;9.30;99.90;;;;;;4898957;29;20450;-88
2021/11/02 17:31:03;;;;;;;19.17;10.25;;;9.30;99.90;;;;;;4898918;29;20048;-88
2021/11/02 17:33:30;;;;;;;69.50;36.67;;;9.30;99.90;;;;;;4897951;29;20055;-88
2021/11/02 17:35:57;;;;;;;85.45;42.10;;;9.30;99.90;;;;;;4898251;29;20048;-90
2021/11/02 17:38:25;;;;;;;101.93;51.28;;;9.20;99.90;;;;;;4896161;29;20494;-89
2021/11/02 17:40:54;;;;;;;90.53;41.80;;;9.20;99.90;;;;;;4897960;29;20049;-88
2021/11/02 17:43:24;;;;;;;63.17;33.90;;;9.20;99.90;;;;;;4892536;29;20064;-88
2021/11/02 17:45:52;;;;;;;97.68;47.13;;;9.20;99.90;;;;;;4877552;29;20518;-88
2021/11/02 17:48:21;;;;;;;122.97;56.22;;;9.10;99.90;;;;;;4873950;29;20049;-87
2021/11/02 17:50:49;;;;;;;80.03;44.92;;;9.10;99.90;;;;;;4873734;29;20056;-90
2021/11/02 17:53:17;;;;;;;134.30;57.83;;;9.00;99.90;;;;;;4873900;29;20052;-88
2021/11/02 17:55:45;;;;;;;104.00;57.88;;;9.00;99.90;;;;;;4877446;29;20071;-89
2021/11/02 17:58:13;;;;;;;158.82;73.03;;;8.90;99.90;;;;;;4878538;29;20044;-88
2021/11/02 18:00:40;;;;;;;84.55;46.42;;;8.80;99.90;;;;;;4877063;29;20044;-89
2021/11/02 18:03:33;;;;;;;102.93;45.33;;;8.80;99.90;;;;;;4876503;29;20140;-89
2021/11/02 18:06:07;;;;;;;67.20;37.60;;;8.70;99.90;;;;;;4877806;29;20056;-90
2021/11/02 18:08:36;;;;;;;98.20;41.90;;;8.60;99.90;;;;;;4888758;29;20047;-88
2021/11/02 18:11:08;;;;;;;61.33;32.97;;;8.60;99.90;;;;;;4892823;29;20044;-88
2021/11/02 18:13:36;;;;;;;92.68;42.03;;;8.50;99.90;;;;;;4887257;29;20049;-89
2021/11/02 18:16:08;;;;;;;63.70;33.80;;;8.50;99.90;;;;;;4878839;29;20064;-88
2021/11/02 18:18:41;;;;;;;100.40;42.00;;;8.50;99.90;;;;;;4886821;29;20048;-88
2021/11/02 18:21:14;;;;;;;192.02;80.18;;;8.40;99.90;;;;;;4887507;29;20056;-90
2021/11/02 18:23:44;;;;;;;106.55;46.05;;;8.30;99.90;;;;;;4886482;29;20053;-88
2021/11/02 18:26:13;;;;;;;89.53;37.90;;;8.30;99.90;;;;;;4873414;29;20585;-89
2021/11/02 18:28:42;;;;;;;68.28;31.33;;;8.20;99.90;;;;;;4890703;29;20049;-90
2021/11/02 18:31:10;;;;;;;54.85;35.60;;;8.20;99.90;;;;;;4875444;29;20052;-88
2021/11/02 18:33:37;;;;;;;84.13;41.42;;;8.10;99.90;;;;;;4877639;29;20063;-87
2021/11/02 18:36:05;;;;;;;44.38;25.00;;;8.10;99.90;;;;;;4872223;29;20061;-88
2021/11/02 18:38:35;;;;;;;26.27;13.80;;;8.10;99.90;;;;;;4888794;29;20064;-86
2021/11/02 18:41:03;;;;;;;31.27;15.75;;;8.00;99.90;;;;;;4874004;29;20461;-87
2021/11/02 18:43:30;;;;;;;46.83;19.02;;;8.00;99.90;;;;;;4888247;29;20059;-88
2021/11/02 18:45:57;;;;;;;22.85;11.98;;;8.00;99.90;;;;;;4892121;29;20056;-88
2021/11/02 18:48:26;;;;;;;29.02;12.35;;;7.90;99.90;;;;;;4886415;29;20108;-87
2021/11/02 18:50:57;;;;;;;14.68;9.07;;;7.90;99.90;;;;;;4880505;29;20147;-88
2021/11/02 18:53:28;;;;;;;28.13;11.70;;;7.80;99.90;;;;;;4870886;29;20052;-90
2021/11/02 18:55:55;;;;;;;18.98;10.25;;;7.70;99.90;;;;;;4892181;29;20059;-90
2021/11/02 18:58:23;;;;;;;22.17;11.30;;;7.70;99.90;;;;;;4876455;29;20049;-90
2021/11/02 19:00:51;;;;;;;22.20;11.85;;;7.70;99.90;;;;;;4892225;29;20498;-89
2021/11/02 19:03:20;;;;;;;27.70;12.32;;;7.60;99.90;;;;;;4875172;29;20052;-90
2021/11/02 19:05:48;;;;;;;22.65;11.40;;;7.60;99.90;;;;;;4877506;29;20143;-88
2021/11/02 19:08:17;;;;;;;51.42;21.25;;;7.60;99.90;;;;;;4890469;29;20056;-87
2021/11/02 19:10:48;;;;;;;33.92;16.70;;;7.50;99.90;;;;;;4892234;29;20064;-88
2021/11/02 19:13:16;;;;;;;57.50;21.20;;;7.50;99.90;;;;;;4875475;29;20056;-88
2021/11/02 19:15:46;;;;;;;46.90;22.33;;;7.40;99.90;;;;;;4876580;29;20056;-87
2021/11/02 19:18:14;;;;;;;93.38;36.15;;;7.40;99.90;;;;;;4890058;29;20155;-88
2021/11/02 19:20:43;;;;;;;65.05;29.65;;;7.30;99.90;;;;;;4875764;29;20056;-88
2021/11/02 19:23:11;;;;;;;152.85;54.22;;;7.30;99.90;;;;;;4875401;29;20806;-87
2021/11/02 19:25:38;;;;;;;118.90;49.53;;;7.20;99.90;;;;;;4883675;29;20136;-88
2021/11/02 19:28:06;;;;;;;148.43;51.28;;;7.20;99.90;;;;;;4888191;29;20089;-88
2021/11/02 19:30:34;;;;;;;88.63;36.78;;;7.10;99.90;;;;;;4870421;29;20053;-90
2021/11/02 19:33:03;;;;;;;56.00;26.33;;;7.20;99.90;;;;;;4877565;29;20056;-89
2021/11/02 19:35:30;;;;;;;;;;;7.10;99.90;;;;;;4873440;29;20053;-89
2021/11/02 19:37:57;;;;;;;59.17;21.52;;;7.10;99.90;;;;;;4874539;29;20001;-89
2021/11/02 19:40:24;;;;;;;45.38;18.17;;;7.10;99.90;;;;;;4889602;29;20498;-89
2021/11/02 19:42:51;;;;;;;25.05;12.82;;;7.10;99.90;;;;;;4874939;29;20489;-87
2021/11/02 19:45:18;;;;;;;28.65;12.73;;;7.10;99.90;;;;;;4889850;29;20116;-89
2021/11/02 19:47:49;;;;;;;26.92;10.98;;;7.10;99.90;;;;;;4889831;29;20052;-87
2021/11/02 19:50:18;;;;;;;13.95;7.80;;;7.10;99.90;;;;;;4883974;29;20053;-87
2021/11/02 19:52:50;;;;;;;15.40;7.93;;;7.10;99.90;;;;;;4892407;29;20044;-89
2021/11/02 19:55:21;;;;;;;17.17;7.28;;;7.20;99.90;;;;;;4872915;29;20063;-88
2021/11/02 19:57:48;;;;;;;9.18;4.82;;;7.20;99.90;;;;;;4887314;29;20057;-87
2021/11/02 20:00:20;;;;;;;12.82;5.97;;;7.20;99.90;;;;;;4884764;29;20048;-86
2021/11/02 20:02:47;;;;;;;8.57;4.28;;;7.20;99.90;;;;;;4885857;29;20052;-85
2021/11/02 20:05:15;;;;;;;22.55;9.98;;;7.20;99.90;;;;;;4886602;29;20140;-89
2021/11/02 20:07:45;;;;;;;25.07;13.60;;;7.20;99.90;;;;;;4887844;29;20045;-87
2021/11/02 20:10:15;;;;;;;41.47;16.60;;;7.20;99.90;;;;;;4884812;29;20703;-86
2021/11/02 20:12:51;;;;;;;65.07;24.52;;;7.20;99.90;;;;;;4886742;29;20053;-87
2021/11/02 20:15:22;;;;;;;62.83;22.13;;;7.10;99.90;;;;;;4886242;29;20067;-89
2021/11/02 20:17:50;;;;;;;41.00;16.27;;;7.10;99.90;;;;;;4873782;29;20125;-88
2021/11/02 20:20:20;;;;;;;16.75;8.95;;;7.10;99.90;;;;;;4875796;29;20044;-88
2021/11/02 20:22:51;;;;;;;17.00;8.60;;;7.00;99.90;;;;;;4892476;29;20048;-90
2021/11/02 20:25:20;;;;;;;8.80;5.57;;;7.00;99.90;;;;;;4876813;29;20064;-90
2021/11/02 20:27:53;;;;;;;11.10;6.40;;;7.00;99.90;;;;;;4885884;29;20049;-90
2021/11/02 20:30:21;;;;;;;14.07;7.05;;;7.00;99.90;;;;;;4892474;29;20048;-88
2021/11/02 20:32:49;;;;;;;9.52;5.55;;;7.00;99.90;;;;;;4877775;29;20116;-87
2021/11/02 20:35:18;;;;;;;7.88;5.50;;;7.00;99.90;;;;;;4879165;29;20104;-88
2021/11/02 20:37:48;;;;;;;7.95;5.70;;;7.00;99.90;;;;;;4895709;29;20048;-89
2021/11/02 20:40:15;;;;;;;33.65;15.32;;;7.00;99.90;;;;;;4880762;29;20059;-89
2021/11/02 20:42:50;;;;;;;154.00;53.00;;;7.00;99.90;;;;;;4880057;29;20049;-88
2021/11/02 20:45:21;;;;;;;95.38;32.65;;;7.00;99.90;;;;;;4889670;29;21790;-89
2021/11/02 20:47:57;;;;;;;44.00;17.17;;;7.00;99.90;;;;;;4893900;29;20064;-90
2021/11/02 20:50:26;;;;;;;32.75;14.00;;;7.00;99.90;;;;;;4890179;29;20101;-90
2021/11/02 20:52:55;;;;;;;23.65;11.73;;;7.00;99.90;;;;;;4888868;29;20057;-88
2021/11/02 20:55:23;;;;;;;16.15;8.93;;;7.00;99.90;;;;;;4872240;29;20056;-89
2021/11/02 20:57:51;;;;;;;15.77;7.80;;;7.00;99.90;;;;;;4874532;29;20048;-89
2021/11/02 21:00:20;;;;;;;11.32;6.50;;;7.00;99.90;;;;;;4879317;29;20102;-87
2021/11/02 21:02:50;;;;;;;10.27;6.93;;;7.00;99.90;;;;;;4873243;29;20578;-91
2021/11/02 21:05:18;;;;;;;9.63;5.18;;;7.10;99.90;;;;;;4876791;29;20140;-91
2021/11/02 21:07:50;;;;;;;11.10;6.93;;;7.10;99.90;;;;;;4870964;29;20048;-90
2021/11/02 21:10:19;;;;;;;9.80;5.45;;;7.10;99.90;;;;;;4886014;29;20057;-89
2021/11/02 21:13:21;;;;;;;9.52;6.50;;;7.10;99.90;;;;;;4887547;29;20136;-89
2021/11/02 21:15:51;;;;;;;7.32;4.93;;;7.10;99.90;;;;;;4889732;29;20067;-88
2021/11/02 21:18:23;;;;;;;10.32;6.40;;;7.10;99.90;;;;;;4876914;29;20111;-89
2021/11/02 21:20:51;;;;;;;10.48;6.20;;;7.00;99.90;;;;;;4875399;29;20071;-90
2021/11/02 21:23:19;;;;;;;18.15;6.75;;;7.10;99.90;;;;;;4887265;29;20117;-90
2021/11/02 21:25:48;;;;;;;5.67;4.90;;;7.00;99.90;;;;;;4888285;29;20052;-89
2021/11/02 21:28:17;;;;;;;12.93;6.50;;;7.00;99.90;;;;;;4891260;29;20052;-90
2021/11/02 21:30:44;;;;;;;9.65;5.32;;;7.00;99.90;;;;;;4886107;29;20053;-89
2021/11/02 21:33:12;;;;;;;10.10;7.50;;;7.00;99.90;;;;;;4872197;29;20049;-90
2021/11/02 21:35:47;;;;;;;12.10;7.85;;;7.00;99.90;;;;;;4889150;29;20080;-88
2021/11/02 21:38:16;;;;;;;23.10;11.57;;;7.00;99.90;;;;;;4885190;29;20080;-87
2021/11/02 21:40:46;;;;;;;47.92;17.90;;;7.00;99.90;;;;;;4875615;29;20041;-87
2021/11/02 21:43:16;;;;;;;108.13;34.47;;;6.90;99.90;;;;;;4870945;29;20100;-88
2021/11/02 21:45:48;;;;;;;111.95;34.05;;;6.90;99.90;;;;;;4870215;29;20063;-88
2021/11/02 21:48:46;;;;;;;100.10;32.90;;;6.90;99.90;;;;;;4875688;29;20063;-87
2021/11/02 21:51:15;;;;;;;97.03;32.67;;;6.90;99.90;;;;;;4889022;29;20083;-89
2021/11/02 21:53:46;;;;;;;98.70;33.95;;;6.90;99.90;;;;;;4891215;29;20052;-89
2021/11/02 21:56:18;;;;;;;97.25;29.67;;;6.90;99.90;;;;;;4891686;29;20045;-89
2021/11/02 21:58:58;;;;;;;82.43;25.00;;;6.90;99.90;;;;;;4895376;29;20132;-89